Time;durP1;ratioP1;P1;durP2;ratioP2;P2;SDS_P1;SDS_P2;PMS_P1;PMS_P2;Temp;Humidity;BMP_temperature;BMP_pressure;BME280_temperature;BME280_humidity;BME280_pressure;Samples;Min_cycle;Max_cycle;Signal;HPM_P1;HPM_P2
2023/01/07 00:00:36;;;;;;;1.35;0.70;;;19.40;55.40;;;;;;6303274;28;20492;-72
2023/01/07 00:03:37;;;;;;;1.55;0.65;;;19.40;55.40;;;;;;6320543;28;20039;-72
2023/01/07 00:06:40;;;;;;;0.43;0.40;;;19.40;55.40;;;;;;6319940;28;20423;-72
2023/01/07 00:09:40;;;;;;;0.98;0.57;;;19.40;55.40;;;;;;6302911;28;20028;-72
2023/01/07 00:12:41;;;;;;;0.85;0.60;;;19.40;55.40;;;;;;6320890;28;20078;-72
2023/01/07 00:15:41;;;;;;;0.60;0.52;;;19.40;55.40;;;;;;6320666;28;20055;-72
2023/01/07 00:18:42;;;;;;;1.77;0.80;;;19.40;55.40;;;;;;6320841;28;20761;-71
2023/01/07 00:21:43;;;;;;;0.55;0.50;;;19.40;55.40;;;;;;6320604;28;20028;-72
2023/01/07 00:24:44;;;;;;;0.75;0.60;;;19.40;55.40;;;;;;6320287;28;20017;-72
2023/01/07 00:27:44;;;;;;;0.70;0.50;;;19.40;55.40;;;;;;6320481;28;20023;-72
2023/01/07 00:30:45;;;;;;;1.10;0.50;;;19.30;55.30;;;;;;6302358;28;20027;-71
2023/01/07 00:37:48;;;;;;;0.65;0.40;;;19.30;55.30;;;;;;6320316;28;20024;-72
2023/01/07 00:40:17;;;;;;;1.33;0.63;;;19.30;55.30;;;;;;6320423;28;20055;-72
2023/01/07 00:43:17;;;;;;;2.45;0.70;;;19.30;55.30;;;;;;6301121;28;20752;-72
2023/01/07 00:46:19;;;;;;;1.00;0.60;;;19.40;55.40;;;;;;6301627;28;20021;-72
2023/01/07 00:49:20;;;;;;;0.60;0.50;;;19.40;55.40;;;;;;6320002;28;20023;-72
2023/01/07 00:52:20;;;;;;;1.05;0.60;;;19.40;55.40;;;;;;6319671;28;20020;-72
2023/01/07 00:55:22;;;;;;;0.68;0.50;;;19.40;55.40;;;;;;6319861;28;20077;-72
2023/01/07 00:58:24;;;;;;;1.08;0.50;;;19.30;55.40;;;;;;6319673;28;20020;-72
2023/01/07 01:01:25;;;;;;;1.17;0.63;;;19.40;55.40;;;;;;6301647;28;20035;-72
2023/01/07 01:04:26;;;;;;;1.40;0.50;;;19.30;55.30;;;;;;6319243;28;20051;-72
2023/01/07 01:07:26;;;;;;;0.63;0.50;;;19.40;55.40;;;;;;6301420;28;20023;-72
2023/01/07 01:10:27;;;;;;;0.68;0.50;;;19.30;55.30;;;;;;6301504;28;20016;-72
2023/01/07 01:13:28;;;;;;;0.70;0.47;;;19.40;55.40;;;;;;6301095;28;20027;-72
2023/01/07 01:16:29;;;;;;;0.75;0.63;;;19.30;55.40;;;;;;6319047;28;20070;-72
2023/01/07 01:19:29;;;;;;;0.85;0.52;;;19.30;55.30;;;;;;6300924;28;20559;-72
2023/01/07 01:22:30;;;;;;;1.02;0.50;;;19.30;55.30;;;;;;6301210;28;20673;-72
2023/01/07 01:25:31;;;;;;;0.73;0.50;;;19.40;55.40;;;;;;6300396;28;20016;-72
2023/01/07 01:28:33;;;;;;;0.43;0.40;;;19.30;55.30;;;;;;6318796;28;20024;-72
2023/01/07 01:31:33;;;;;;;0.47;0.40;;;19.40;55.40;;;;;;6318863;28;20069;-72
2023/01/07 01:34:34;;;;;;;0.63;0.43;;;19.40;55.40;;;;;;6319036;28;20473;-72
2023/01/07 01:37:34;;;;;;;0.50;0.35;;;19.40;55.40;;;;;;6318893;28;20035;-71
2023/01/07 01:40:35;;;;;;;0.85;0.60;;;19.40;55.40;;;;;;6318751;28;20070;-71
2023/01/07 01:43:40;;;;;;;0.70;0.40;;;19.30;55.30;;;;;;6318829;28;20504;-71
2023/01/07 01:46:43;;;;;;;0.73;0.45;;;19.40;55.40;;;;;;6318848;28;20016;-72
2023/01/07 01:49:50;;;;;;;0.45;0.43;;;19.30;55.40;;;;;;6318366;28;20024;-72
2023/01/07 01:52:56;;;;;;;0.50;0.40;;;19.40;55.40;;;;;;6318257;28;20027;-72
2023/01/07 01:56:01;;;;;;;0.38;0.30;;;19.40;55.40;;;;;;6318660;28;20047;-72
2023/01/07 01:59:06;;;;;;;0.70;0.50;;;19.30;55.40;;;;;;6318430;28;20055;-72
2023/01/07 02:02:07;;;;;;;;;;;19.40;56.10;;;;;;6300711;28;20516;-72
2023/01/07 02:05:08;;;;;;;0.75;0.43;;;19.30;55.30;;;;;;6318215;28;19908;-72
2023/01/07 02:08:09;;;;;;;0.52;0.45;;;19.40;55.40;;;;;;6299980;28;20035;-72
2023/01/07 02:11:18;;;;;;;0.50;0.30;;;19.40;55.40;;;;;;6292642;28;20028;-72
2023/01/07 02:14:42;;;;;;;0.30;0.30;;;19.40;55.40;;;;;;6318195;28;20016;-72
2023/01/07 02:18:17;;;;;;;0.80;0.52;;;19.30;55.30;;;;;;6300041;28;20435;-72
2023/01/07 02:21:49;;;;;;;2.05;0.60;;;19.30;55.30;;;;;;6299765;28;20024;-73
2023/01/07 02:25:28;;;;;;;0.43;0.38;;;19.40;55.40;;;;;;6274632;28;20401;-73
2023/01/07 02:28:51;;;;;;;0.77;0.45;;;19.30;55.40;;;;;;6176254;28;20621;-72
2023/01/07 02:32:33;;;;;;;0.80;0.50;;;19.40;55.40;;;;;;6292684;28;20082;-72
2023/01/07 02:36:01;;;;;;;0.45;0.43;;;19.40;55.40;;;;;;6274525;28;20024;-71
2023/01/07 02:39:21;;;;;;;0.40;0.40;;;19.30;55.40;;;;;;6274799;28;20020;-71
2023/01/07 02:42:34;;;;;;;0.40;0.40;;;19.30;55.30;;;;;;6292478;28;20096;-72
2023/01/07 02:46:16;;;;;;;0.57;0.50;;;19.40;55.40;;;;;;6274709;28;20684;-73
2023/01/07 02:49:17;;;;;;;0.75;0.50;;;19.40;55.40;;;;;;6278373;28;20400;-72
2023/01/07 02:52:21;;;;;;;0.80;0.50;;;19.30;55.30;;;;;;6292564;28;20034;-72
2023/01/07 02:55:37;;;;;;;1.25;0.40;;;19.40;55.40;;;;;;6292300;28;20092;-72
2023/01/07 02:59:02;;;;;;;0.60;0.40;;;19.30;56.00;;;;;;6292309;28;20029;-72
2023/01/07 03:02:15;;;;;;;0.40;0.40;;;19.30;55.30;;;;;;6292389;28;20020;-72
2023/01/07 03:05:34;;;;;;;0.52;0.30;;;19.40;55.40;;;;;;6292344;28;20092;-72
2023/01/07 03:08:57;;;;;;;0.63;0.43;;;19.40;55.40;;;;;;6274258;28;20070;-71
2023/01/07 03:12:07;;;;;;;0.30;0.28;;;19.30;55.30;;;;;;6292329;28;20025;-73
2023/01/07 03:15:56;;;;;;;0.40;0.30;;;19.30;55.30;;;;;;6292356;28;20728;-72
2023/01/07 03:19:15;;;;;;;0.35;0.30;;;19.30;55.30;;;;;;6273899;28;20071;-72
2023/01/07 03:22:19;;;;;;;0.50;0.30;;;19.30;55.30;;;;;;6281210;28;20404;-72
2023/01/07 03:25:21;;;;;;;0.63;0.45;;;19.30;55.30;;;;;;6299030;28;20040;-72
2023/01/07 03:28:26;;;;;;;0.60;0.50;;;19.30;55.30;;;;;;6317371;28;20052;-72
2023/01/07 03:31:28;;;;;;;0.40;0.40;;;19.30;55.30;;;;;;6317387;28;20066;-71
2023/01/07 03:34:32;;;;;;;1.00;0.50;;;19.40;55.40;;;;;;6298998;28;20032;-72
2023/01/07 03:37:33;;;;;;;0.63;0.50;;;19.30;55.30;;;;;;6317284;28;20392;-71
2023/01/07 03:40:34;;;;;;;0.93;0.57;;;19.40;55.40;;;;;;6319945;28;20293;-72
2023/01/07 03:43:35;;;;;;;0.55;0.40;;;19.30;55.30;;;;;;6321607;28;20418;-72
2023/01/07 03:46:37;;;;;;;0.50;0.40;;;19.40;55.40;;;;;;6321703;28;20012;-72
2023/01/07 03:49:37;;;;;;;0.40;0.40;;;19.30;55.30;;;;;;6321027;28;20494;-71
2023/01/07 03:52:38;;;;;;;0.47;0.40;;;19.30;55.30;;;;;;6303168;28;20115;-72
2023/01/07 03:55:39;;;;;;;0.40;0.40;;;19.40;55.40;;;;;;6321339;28;20539;-71
2023/01/07 03:58:40;;;;;;;0.40;0.32;;;19.40;55.40;;;;;;6303249;28;20027;-72
2023/01/07 04:01:40;;;;;;;0.30;0.30;;;19.40;55.40;;;;;;6320933;28;20444;-72
2023/01/07 04:04:41;;;;;;;0.57;0.45;;;19.30;55.30;;;;;;6320843;28;20521;-72
2023/01/07 04:07:42;;;;;;;0.63;0.40;;;19.40;55.40;;;;;;6320993;28;20017;-71
2023/01/07 04:10:43;;;;;;;0.40;0.40;;;19.30;55.30;;;;;;6302863;28;20017;-71
2023/01/07 04:13:43;;;;;;;0.30;0.22;;;19.40;55.40;;;;;;6320415;28;20069;-72
2023/01/07 04:16:44;;;;;;;0.47;0.40;;;19.40;55.40;;;;;;6302612;28;20028;-72
2023/01/07 04:19:44;;;;;;;0.50;0.40;;;19.40;55.40;;;;;;6320566;28;20032;-72
2023/01/07 04:22:45;;;;;;;0.32;0.30;;;19.30;55.30;;;;;;6302273;28;20032;-71
2023/01/07 04:25:47;;;;;;;0.50;0.43;;;19.30;55.40;;;;;;6320180;28;20020;-72
2023/01/07 04:28:48;;;;;;;0.50;0.28;;;19.30;55.40;;;;;;6302200;28;20023;-72
2023/01/07 04:31:49;;;;;;;0.45;0.43;;;19.30;55.30;;;;;;6320434;28;20052;-72
2023/01/07 04:34:49;;;;;;;0.32;0.32;;;19.30;55.30;;;;;;6320104;28;20139;-72
2023/01/07 04:37:50;;;;;;;0.98;0.40;;;19.30;55.30;;;;;;6320567;28;20027;-72
2023/01/07 04:40:51;;;;;;;0.35;0.32;;;19.30;55.30;;;;;;6301469;28;20031;-72
2023/01/07 04:43:51;;;;;;;0.70;0.40;;;19.30;55.30;;;;;;6301814;28;20016;-72
2023/01/07 04:46:52;;;;;;;0.40;0.40;;;19.40;55.40;;;;;;6320070;28;20484;-72
2023/01/07 04:49:52;;;;;;;0.30;0.30;;;19.30;55.30;;;;;;6320304;28;20024;-72
2023/01/07 04:52:53;;;;;;;0.20;0.20;;;19.30;55.30;;;;;;6301160;28;20574;-72
2023/01/07 04:55:54;;;;;;;0.47;0.40;;;19.30;55.30;;;;;;6301265;28;20089;-72
2023/01/07 04:58:54;;;;;;;0.40;0.32;;;19.30;55.30;;;;;;6319725;28;20579;-71
2023/01/07 05:01:55;;;;;;;0.35;0.35;;;19.30;55.30;;;;;;6319469;28;20425;-73
2023/01/07 05:04:56;;;;;;;0.30;0.30;;;19.30;55.30;;;;;;6301289;28;20111;-72
2023/01/07 05:07:57;;;;;;;0.52;0.40;;;19.30;55.30;;;;;;6319990;28;20048;-71
2023/01/07 05:10:58;;;;;;;0.40;0.40;;;19.30;56.00;;;;;;6301058;28;20023;-72
2023/01/07 05:14:00;;;;;;;1.05;0.30;;;19.30;55.30;;;;;;6300902;28;20442;-71
2023/01/07 05:17:00;;;;;;;0.40;0.40;;;19.40;55.30;;;;;;6319026;28;20032;-72
2023/01/07 05:20:01;;;;;;;0.20;0.20;;;19.30;55.30;;;;;;6301249;28;20048;-72
2023/01/07 05:23:03;;;;;;;0.73;0.38;;;19.30;55.30;;;;;;6318841;28;20760;-71
2023/01/07 05:26:03;;;;;;;1.02;0.50;;;19.30;55.30;;;;;;6300879;28;20028;-72
2023/01/07 05:29:04;;;;;;;0.60;0.38;;;19.30;55.30;;;;;;6319055;28;20054;-72
2023/01/07 05:32:05;;;;;;;0.43;0.43;;;19.30;55.30;;;;;;6300671;28;20505;-72
2023/01/07 05:35:06;;;;;;;0.30;0.30;;;19.30;55.30;;;;;;6318867;28;20103;-71
2023/01/07 05:38:08;;;;;;;1.25;0.40;;;19.30;55.30;;;;;;6319314;28;20024;-71
2023/01/07 05:41:08;;;;;;;0.40;0.40;;;19.30;55.30;;;;;;6319000;28;20103;-72
2023/01/07 05:44:09;;;;;;;0.75;0.40;;;19.30;55.20;;;;;;6318582;28;20031;-72
2023/01/07 05:47:10;;;;;;;0.40;0.40;;;19.30;55.30;;;;;;6300390;28;20023;-72
2023/01/07 05:50:10;;;;;;;0.80;0.30;;;19.30;55.30;;;;;;6318341;28;20610;-71
2023/01/07 05:53:11;;;;;;;0.88;0.22;;;19.40;55.30;;;;;;6300489;28;20032;-71
2023/01/07 05:56:11;;;;;;;0.60;0.40;;;19.30;55.20;;;;;;6300281;28;20024;-71
2023/01/07 05:59:13;;;;;;;0.43;0.43;;;19.40;55.30;;;;;;6300321;28;20031;-72
2023/01/07 06:02:13;;;;;;;0.47;0.35;;;19.30;55.30;;;;;;6305296;28;20058;-71
2023/01/07 06:05:14;;;;;;;0.40;0.40;;;19.30;55.30;;;;;;6291164;28;20395;-72
2023/01/07 06:08:15;;;;;;;0.30;0.30;;;19.30;55.30;;;;;;6275442;28;20027;-71
2023/01/07 06:11:15;;;;;;;0.20;0.20;;;19.30;55.30;;;;;;6302131;28;20476;-72
2023/01/07 06:14:16;;;;;;;0.20;0.20;;;19.30;55.30;;;;;;6318261;28;20695;-71
2023/01/07 06:17:17;;;;;;;0.35;0.35;;;19.30;55.30;;;;;;6317971;28;20059;-71
2023/01/07 06:20:18;;;;;;;0.90;0.40;;;19.30;55.30;;;;;;6317841;28;20062;-72
2023/01/07 06:23:18;;;;;;;0.30;0.30;;;19.30;55.30;;;;;;6317726;28;20044;-71
2023/01/07 06:26:19;;;;;;;0.43;0.30;;;19.30;55.30;;;;;;6318374;28;20050;-72
2023/01/07 06:29:20;;;;;;;0.63;0.38;;;19.30;55.30;;;;;;6318018;28;20024;-71
2023/01/07 06:32:20;;;;;;;0.20;0.20;;;19.30;55.30;;;;;;6317959;28;20443;-72
2023/01/07 06:35:21;;;;;;;0.20;0.20;;;19.30;55.20;;;;;;6299430;28;20024;-71
2023/01/07 06:38:22;;;;;;;0.20;0.20;;;19.30;55.30;;;;;;6317685;28;20024;-71
2023/01/07 06:41:23;;;;;;;0.40;0.30;;;19.30;55.30;;;;;;6318035;28;20069;-71
2023/01/07 06:44:23;;;;;;;0.35;0.35;;;19.30;55.20;;;;;;6298995;28;20438;-71
2023/01/07 06:47:24;;;;;;;0.50;0.40;;;19.30;55.30;;;;;;6299744;28;20481;-71
2023/01/07 06:50:25;;;;;;;0.30;0.30;;;19.30;55.30;;;;;;6317986;28;20637;-71
2023/01/07 06:53:26;;;;;;;0.40;0.30;;;19.30;55.30;;;;;;6299623;28;20028;-71
2023/01/07 06:56:27;;;;;;;0.20;0.20;;;19.30;55.30;;;;;;6317912;28;20063;-71
2023/01/07 06:59:27;;;;;;;0.32;0.30;;;19.30;55.30;;;;;;6299742;28;20534;-71
2023/01/07 07:02:28;;;;;;;0.50;0.30;;;19.30;55.30;;;;;;6318012;28;20019;-72
2023/01/07 07:05:29;;;;;;;0.20;0.20;;;19.30;55.30;;;;;;6299563;28;20225;-72
2023/01/07 07:08:30;;;;;;;0.20;0.20;;;19.30;55.30;;;;;;6317695;28;20028;-71
2023/01/07 07:11:30;;;;;;;0.50;0.32;;;19.30;55.20;;;;;;6317650;28;20028;-72
2023/01/07 07:14:32;;;;;;;0.30;0.30;;;19.30;55.30;;;;;;6300539;28;20070;-71
2023/01/07 07:17:33;;;;;;;0.20;0.20;;;19.30;55.30;;;;;;6295399;28;20438;-72
2023/01/07 07:20:33;;;;;;;0.20;0.20;;;19.30;55.30;;;;;;6297166;28;20039;-72
2023/01/07 07:23:34;;;;;;;0.30;0.22;;;19.30;55.30;;;;;;6316762;28;20044;-72
2023/01/07 07:26:35;;;;;;;0.40;0.40;;;19.30;55.30;;;;;;6340572;28;20020;-71
2023/01/07 07:29:35;;;;;;;0.30;0.30;;;19.30;55.30;;;;;;6303640;28;20027;-71
2023/01/07 07:32:36;;;;;;;1.00;0.30;;;19.30;55.30;;;;;;6304016;28;20053;-71
2023/01/07 07:35:37;;;;;;;0.30;0.30;;;19.30;55.30;;;;;;6321831;28;20082;-72
2023/01/07 07:38:37;;;;;;;0.20;0.20;;;19.30;55.30;;;;;;6321650;28;20463;-72
2023/01/07 07:41:38;;;;;;;0.65;0.40;;;19.30;55.30;;;;;;6321426;28;20024;-72
2023/01/07 07:44:38;;;;;;;0.60;0.40;;;19.30;55.30;;;;;;6302808;28;20511;-71
2023/01/07 07:47:39;;;;;;;2.17;0.30;;;19.30;55.30;;;;;;6303612;28;20511;-72
2023/01/07 07:50:40;;;;;;;0.30;0.30;;;19.30;55.30;;;;;;6321377;28;20358;-72
2023/01/07 07:53:40;;;;;;;0.30;0.30;;;19.30;55.30;;;;;;6303500;28;20044;-72
2023/01/07 07:56:41;;;;;;;0.32;0.32;;;19.30;55.30;;;;;;6320908;28;20050;-72
2023/01/07 07:59:42;;;;;;;0.32;0.30;;;19.30;55.20;;;;;;6321267;28;20047;-71
2023/01/07 08:02:42;;;;;;;0.52;0.35;;;19.30;55.20;;;;;;6321148;28;20607;-72
2023/01/07 08:05:43;;;;;;;0.20;0.20;;;19.30;55.20;;;;;;6302921;28;20729;-71
2023/01/07 08:08:44;;;;;;;0.30;0.30;;;19.30;55.20;;;;;;6321114;28;20016;-72
2023/01/07 08:11:45;;;;;;;0.55;0.40;;;19.30;55.20;;;;;;6320873;28;20027;-72
2023/01/07 08:14:46;;;;;;;0.43;0.30;;;19.30;55.20;;;;;;6302479;28;20553;-72
2023/01/07 08:17:46;;;;;;;0.40;0.32;;;19.30;55.20;;;;;;6321014;28;20389;-71
2023/01/07 08:20:47;;;;;;;0.28;0.28;;;19.30;55.20;;;;;;6321047;28;20035;-72
2023/01/07 08:23:48;;;;;;;0.30;0.30;;;19.30;55.20;;;;;;6289055;28;20501;-71
2023/01/07 08:26:49;;;;;;;0.60;0.32;;;19.30;55.20;;;;;;6276599;28;20108;-72
2023/01/07 08:29:50;;;;;;;0.45;0.40;;;19.30;55.20;;;;;;6277843;28;20108;-72
2023/01/07 08:32:50;;;;;;;0.30;0.30;;;19.30;55.20;;;;;;6295127;28;20021;-72
2023/01/07 08:35:51;;;;;;;0.20;0.20;;;19.30;55.20;;;;;;6295465;28;20028;-72
2023/01/07 08:38:53;;;;;;;0.30;0.30;;;19.30;55.20;;;;;;6301981;28;20020;-71
2023/01/07 08:41:54;;;;;;;0.30;0.30;;;19.30;55.20;;;;;;6302087;28;20480;-71
2023/01/07 08:44:55;;;;;;;0.32;0.20;;;19.30;55.20;;;;;;6320045;28;20020;-71
2023/01/07 08:47:58;;;;;;;0.50;0.30;;;19.30;55.20;;;;;;6319881;28;20021;-72
2023/01/07 08:51:00;;;;;;;0.50;0.30;;;19.30;55.20;;;;;;6319549;28;20020;-71
2023/01/07 08:54:00;;;;;;;0.65;0.28;;;19.30;55.20;;;;;;6319133;28;20052;-71
2023/01/07 08:57:01;;;;;;;0.82;0.30;;;19.30;55.20;;;;;;6301828;28;20031;-71
2023/01/07 09:00:02;;;;;;;0.30;0.30;;;19.30;55.20;;;;;;6319683;28;20429;-72
2023/01/07 09:03:03;;;;;;;0.57;0.45;;;19.30;55.20;;;;;;6300937;28;20079;-71
2023/01/07 09:06:04;;;;;;;0.30;0.30;;;19.30;55.20;;;;;;6319482;28;20028;-74
2023/01/07 09:09:04;;;;;;;0.25;0.25;;;19.30;55.20;;;;;;6301615;28;20070;-71
2023/01/07 09:12:06;;;;;;;0.28;0.28;;;19.30;55.20;;;;;;6319274;28;20030;-72
2023/01/07 09:15:07;;;;;;;0.30;0.30;;;19.30;55.20;;;;;;6319263;28;20020;-72
2023/01/07 09:18:09;;;;;;;0.68;0.40;;;19.30;55.20;;;;;;6301019;28;20024;-72
2023/01/07 09:21:10;;;;;;;0.73;0.30;;;19.30;55.20;;;;;;6319323;28;20035;-72
2023/01/07 09:24:11;;;;;;;0.30;0.30;;;19.30;55.20;;;;;;6318979;28;20059;-72
2023/01/07 09:27:12;;;;;;;0.73;0.38;;;19.30;55.20;;;;;;6300623;28;20062;-72
2023/01/07 09:30:12;;;;;;;0.38;0.38;;;19.30;55.20;;;;;;6319064;28;20023;-72
2023/01/07 09:33:13;;;;;;;0.45;0.30;;;19.30;55.20;;;;;;6318626;28;20559;-71
2023/01/07 09:36:15;;;;;;;0.25;0.25;;;19.30;55.20;;;;;;6300602;28;20028;-72
2023/01/07 09:39:16;;;;;;;0.30;0.30;;;19.30;55.20;;;;;;6318667;28;20397;-71
2023/01/07 09:42:49;;;;;;;0.20;0.20;;;19.30;55.20;;;;;;6318651;28;20107;-72
2023/01/07 09:45:54;;;;;;;0.40;0.40;;;19.30;55.20;;;;;;6300277;28;20032;-72
2023/01/07 09:49:00;;;;;;;0.20;0.20;;;19.30;55.20;;;;;;6300522;28;20024;-71
2023/01/07 09:52:05;;;;;;;0.40;0.30;;;19.30;55.20;;;;;;6318697;28;20085;-72
2023/01/07 09:55:19;;;;;;;0.40;0.40;;;19.30;55.20;;;;;;6319038;28;20271;-72
2023/01/07 09:58:21;;;;;;;0.52;0.40;;;19.30;55.10;;;;;;6318718;28;20098;-72
2023/01/07 10:01:49;;;;;;;0.35;0.30;;;19.30;55.20;;;;;;6300144;28;20042;-72
2023/01/07 10:05:11;;;;;;;0.30;0.30;;;19.30;55.20;;;;;;6318064;28;20016;-72
2023/01/07 10:08:28;;;;;;;0.85;0.38;;;19.30;55.90;;;;;;6318585;28;20759;-71
2023/01/07 10:11:44;;;;;;;0.65;0.38;;;19.30;55.20;;;;;;6318677;28;20481;-72
2023/01/07 10:14:58;;;;;;;0.57;0.30;;;19.30;55.20;;;;;;6299724;28;20489;-72
2023/01/07 10:18:41;;;;;;;0.20;0.20;;;19.30;55.30;;;;;;6318311;28;20031;-72
2023/01/07 10:21:50;;;;;;;0.45;0.38;;;19.30;55.20;;;;;;6289090;28;20036;-71
2023/01/07 10:24:58;;;;;;;0.32;0.32;;;19.30;55.30;;;;;;6308185;28;20028;-72
2023/01/07 10:28:04;;;;;;;0.50;0.30;;;19.30;55.30;;;;;;6318032;28;20111;-73
2023/01/07 10:31:12;;;;;;;0.70;0.30;;;19.30;55.30;;;;;;6300108;28;20548;-71
2023/01/07 10:34:18;;;;;;;0.20;0.20;;;19.30;55.30;;;;;;6317317;28;20499;-72
2023/01/07 10:37:29;;;;;;;0.20;0.20;;;19.30;55.30;;;;;;6320505;28;20020;-70
2023/01/07 10:41:00;;;;;;;0.30;0.30;;;19.30;55.30;;;;;;6301658;28;20377;-70
2023/01/07 10:44:17;;;;;;;0.30;0.30;;;19.30;55.30;;;;;;6317378;28;20571;-69
2023/01/07 10:47:42;;;;;;;2.97;0.30;;;19.30;55.30;;;;;;6300705;28;20388;-69
2023/01/07 10:50:58;;;;;;;0.30;0.30;;;19.30;55.40;;;;;;6303763;28;20400;-69
2023/01/07 10:54:10;;;;;;;1.95;0.30;;;19.30;55.40;;;;;;6323892;28;20103;-70
2023/01/07 10:57:20;;;;;;;0.40;0.30;;;19.30;55.40;;;;;;6323863;28;20031;-70
2023/01/07 11:00:23;;;;;;;0.22;0.22;;;19.30;55.30;;;;;;6323981;28;20024;-69
2023/01/07 11:03:24;;;;;;;0.28;0.28;;;19.30;55.30;;;;;;6323722;28;20420;-70
2023/01/07 11:06:49;;;;;;;0.20;0.20;;;19.30;55.30;;;;;;6323705;28;20030;-69
2023/01/07 11:09:52;;;;;;;0.30;0.20;;;19.30;55.40;;;;;;6323913;28;20028;-70
2023/01/07 11:13:00;;;;;;;0.40;0.38;;;19.30;55.40;;;;;;6323763;28;20025;-69
2023/01/07 11:16:16;;;;;;;0.30;0.30;;;19.30;55.40;;;;;;6323572;28;20016;-69
2023/01/07 11:19:16;;;;;;;0.30;0.20;;;19.30;55.30;;;;;;6305457;28;20426;-69
2023/01/07 11:22:26;;;;;;;0.25;0.25;;;19.30;55.40;;;;;;6304880;28;20132;-70
2023/01/07 11:25:28;;;;;;;0.32;0.30;;;19.30;55.30;;;;;;6322888;28;20106;-70
2023/01/07 11:28:29;;;;;;;0.35;0.30;;;19.30;55.30;;;;;;6304975;28;20111;-70
2023/01/07 11:31:53;;;;;;;0.35;0.20;;;19.30;55.40;;;;;;6304771;28;20397;-70
2023/01/07 11:34:58;;;;;;;0.30;0.30;;;19.30;55.40;;;;;;6322938;28;20020;-69
2023/01/07 11:38:00;;;;;;;0.47;0.25;;;19.30;55.40;;;;;;6322830;28;20098;-70
2023/01/07 11:41:03;;;;;;;0.30;0.30;;;19.30;55.40;;;;;;6322862;28;20027;-69
2023/01/07 11:44:14;;;;;;;0.40;0.30;;;19.30;55.30;;;;;;6292082;28;20032;-70
2023/01/07 11:47:17;;;;;;;0.40;0.30;;;19.30;55.30;;;;;;6320555;28;20154;-70
2023/01/07 11:50:27;;;;;;;0.85;0.30;;;19.30;55.40;;;;;;6328145;28;20047;-71
2023/01/07 11:53:40;;;;;;;0.30;0.30;;;19.30;55.40;;;;;;6301899;28;20028;-71
2023/01/07 11:56:41;;;;;;;0.68;0.40;;;19.30;55.20;;;;;;6304214;28;20050;-70
2023/01/07 11:59:41;;;;;;;1.17;0.40;;;19.30;55.30;;;;;;6320544;28;20413;-71
2023/01/07 12:02:42;;;;;;;4.80;0.50;;;19.30;55.20;;;;;;6301558;28;20389;-71
2023/01/07 12:05:44;;;;;;;0.70;0.38;;;19.30;55.10;;;;;;6320147;28;20722;-71
2023/01/07 12:09:14;;;;;;;0.20;0.20;;;19.30;55.20;;;;;;6301899;28;20034;-71
2023/01/07 12:12:38;;;;;;;0.98;0.40;;;19.30;55.20;;;;;;6319603;28;20052;-71
2023/01/07 12:15:51;;;;;;;9.35;2.45;;;19.30;55.20;;;;;;6304784;28;20020;-72
2023/01/07 12:19:07;;;;;;;10.95;3.13;;;19.30;55.20;;;;;;6303222;28;20495;-71
2023/01/07 12:22:35;;;;;;;8.95;2.20;;;19.40;55.30;;;;;;6318035;28;20098;-73
2023/01/07 12:25:52;;;;;;;5.85;2.15;;;19.40;55.30;;;;;;6301161;28;20059;-72
2023/01/07 12:29:04;;;;;;;11.10;2.25;;;19.30;55.40;;;;;;6301272;28;20027;-72
2023/01/07 12:32:41;;;;;;;20.77;6.10;;;19.40;55.40;;;;;;6305434;28;20047;-71
2023/01/07 12:35:44;;;;;;;20.90;5.28;;;19.40;55.30;;;;;;6292280;28;20055;-72
2023/01/07 12:38:52;;;;;;;17.17;5.07;;;19.40;55.30;;;;;;6299683;28;20047;-71
2023/01/07 12:42:20;;;;;;;23.63;5.63;;;19.40;55.30;;;;;;6306967;28;20022;-71
2023/01/07 12:45:41;;;;;;;20.08;5.15;;;19.40;55.30;;;;;;6317890;28;20138;-71
2023/01/07 12:49:19;;;;;;;22.10;5.50;;;19.30;55.30;;;;;;6319544;28;20012;-71
2023/01/07 12:52:29;;;;;;;19.65;5.85;;;19.30;55.30;;;;;;6300345;28;20119;-70
2023/01/07 12:55:40;;;;;;;14.25;4.25;;;19.30;55.40;;;;;;6318691;28;20760;-70
2023/01/07 12:59:31;;;;;;;14.95;4.95;;;19.30;55.40;;;;;;6318478;28;20040;-71
2023/01/07 13:02:47;;;;;;;15.57;4.35;;;19.40;55.60;;;;;;6244792;28;20026;-71
2023/01/07 13:05:51;;;;;;;;;;;19.40;55.90;;;;;;6300722;28;20114;-71
2023/01/07 13:09:38;;;;;;;15.68;4.65;;;19.40;55.60;;;;;;6299915;28;19911;-71
2023/01/07 13:12:44;;;;;;;16.50;4.47;;;19.40;55.60;;;;;;6285506;28;20034;-71
2023/01/07 13:15:47;;;;;;;16.17;4.75;;;19.40;55.60;;;;;;6318602;28;20496;-70
2023/01/07 13:18:48;;;;;;;18.13;5.85;;;19.40;55.70;;;;;;6299961;28;20115;-70
2023/01/07 13:21:50;;;;;;;20.27;6.05;;;19.40;55.70;;;;;;6317551;28;20032;-70
2023/01/07 13:25:11;;;;;;;26.45;6.25;;;19.40;55.70;;;;;;6299931;28;20032;-71
2023/01/07 13:28:39;;;;;;;24.75;6.45;;;19.40;55.70;;;;;;6318197;28;20024;-70
2023/01/07 13:32:09;;;;;;;24.25;7.60;;;19.40;55.70;;;;;;6299269;28;20024;-70
2023/01/07 13:35:19;;;;;;;23.65;7.30;;;19.30;55.60;;;;;;6299759;28;20027;-70
2023/01/07 13:38:38;;;;;;;23.38;7.03;;;19.40;55.70;;;;;;6299314;28;20114;-70
2023/01/07 13:41:57;;;;;;;20.83;6.28;;;19.30;55.60;;;;;;6299361;28;20020;-70
2023/01/07 13:45:10;;;;;;;27.05;7.43;;;19.40;55.80;;;;;;6317668;28;20115;-70
2023/01/07 13:48:20;;;;;;;21.38;7.40;;;19.30;55.70;;;;;;6299791;28;20032;-71
2023/01/07 13:51:34;;;;;;;21.88;7.22;;;19.30;55.70;;;;;;6274242;28;20445;-70
2023/01/07 13:54:49;;;;;;;20.83;7.32;;;19.40;55.80;;;;;;6316973;28;20012;-70
2023/01/07 13:57:50;;;;;;;20.05;6.40;;;19.40;55.80;;;;;;6299332;28;20031;-70
2023/01/07 14:01:16;;;;;;;18.17;6.15;;;19.40;55.80;;;;;;6299194;28;20020;-70
2023/01/07 14:04:34;;;;;;;18.48;5.90;;;19.40;56.00;;;;;;6325754;28;20024;-70
2023/01/07 14:08:06;;;;;;;25.73;6.82;;;19.40;56.00;;;;;;6317180;28;20091;-70
2023/01/07 14:11:07;;;;;;;21.70;6.32;;;19.40;55.90;;;;;;6317382;28;20019;-70
2023/01/07 14:14:26;;;;;;;20.63;7.15;;;19.40;55.90;;;;;;6299183;28;20028;-69
2023/01/07 14:17:50;;;;;;;17.92;5.55;;;19.40;56.00;;;;;;6320908;28;20026;-71
2023/01/07 14:21:23;;;;;;;17.35;5.70;;;19.40;56.10;;;;;;6300223;28;20032;-71
2023/01/07 14:24:27;;;;;;;22.92;6.75;;;19.40;56.10;;;;;;6304821;28;20054;-69
2023/01/07 14:27:58;;;;;;;17.92;6.00;;;19.40;55.90;;;;;;6343220;28;20671;-69
2023/01/07 14:30:59;;;;;;;18.92;6.32;;;19.40;56.00;;;;;;6274886;28;20020;-70
2023/01/07 14:34:06;;;;;;;18.70;6.93;;;19.40;56.00;;;;;;6274095;28;20056;-70
2023/01/07 14:37:14;;;;;;;21.08;6.80;;;19.40;56.00;;;;;;6292868;28;20048;-72
2023/01/07 14:40:31;;;;;;;19.35;6.95;;;19.40;56.00;;;;;;6314304;28;20708;-69
2023/01/07 14:46:43;;;;;;;22.08;7.03;;;19.40;56.10;;;;;;6343790;28;20027;-70
2023/01/07 14:50:18;;;;;;;22.83;7.13;;;19.40;56.10;;;;;;6325707;28;20059;-70
2023/01/07 14:53:47;;;;;;;18.88;6.75;;;19.40;56.10;;;;;;6268475;28;20028;-70
2023/01/07 14:57:16;;;;;;;22.05;7.47;;;19.40;56.10;;;;;;6299571;28;20050;-69
2023/01/07 15:00:36;;;;;;;20.38;6.88;;;19.30;56.00;;;;;;6268819;28;20105;-69
2023/01/07 15:04:00;;;;;;;22.58;6.45;;;19.30;56.00;;;;;;6317521;28;20024;-70
2023/01/07 15:07:02;;;;;;;20.48;6.82;;;19.40;56.10;;;;;;6316997;28;20366;-70
2023/01/07 15:17:18;;;;;;;17.85;6.63;;;19.40;56.10;;;;;;6316902;28;20067;-70
2023/01/07 15:20:19;;;;;;;16.73;5.38;;;19.40;56.00;;;;;;6317184;28;20034;-70
2023/01/07 15:23:33;;;;;;;21.52;5.70;;;19.40;56.20;;;;;;6313500;28;20040;-70
2023/01/07 15:26:59;;;;;;;19.38;6.03;;;19.40;56.10;;;;;;6316100;28;20024;-70
2023/01/07 15:30:07;;;;;;;14.73;5.28;;;19.40;56.10;;;;;;6310917;28;20031;-70
2023/01/07 15:33:51;;;;;;;14.23;5.70;;;19.40;56.20;;;;;;6298426;28;20524;-70
2023/01/07 15:36:52;;;;;;;21.92;6.10;;;19.40;56.20;;;;;;6295171;28;20012;-70
2023/01/07 15:39:57;;;;;;;24.88;5.72;;;19.40;56.20;;;;;;6296470;28;20020;-70
2023/01/07 15:42:58;;;;;;;;;;;19.40;56.20;;;;;;6321200;28;20020;-69
2023/01/07 15:46:03;;;;;;;16.60;5.38;;;19.40;56.20;;;;;;6320934;28;20411;-70
2023/01/07 15:49:24;;;;;;;18.85;5.53;;;19.40;56.30;;;;;;6324608;28;20519;-70
2023/01/07 15:52:26;;;;;;;15.45;5.32;;;19.40;56.20;;;;;;6346354;28;20492;-70
2023/01/07 15:55:29;;;;;;;16.15;5.53;;;19.40;56.30;;;;;;6331720;28;20016;-70
2023/01/07 15:58:38;;;;;;;15.52;4.93;;;19.40;56.30;;;;;;6321360;28;20103;-70
2023/01/07 16:01:48;;;;;;;19.63;5.13;;;19.40;56.30;;;;;;6320293;28;20499;-69
2023/01/07 16:04:55;;;;;;;15.13;4.90;;;19.40;56.30;;;;;;6320613;28;20490;-69
2023/01/07 16:07:59;;;;;;;12.55;4.75;;;19.40;56.30;;;;;;6321272;28;20070;-70
2023/01/07 16:11:04;;;;;;;16.23;4.70;;;19.40;56.30;;;;;;6302531;28;20520;-70
2023/01/07 16:14:14;;;;;;;16.77;5.43;;;19.40;56.30;;;;;;6301722;28;20028;-70
2023/01/07 16:17:18;;;;;;;12.48;4.15;;;19.40;56.30;;;;;;6320662;28;20101;-70
2023/01/07 16:20:25;;;;;;;12.93;5.00;;;19.40;56.30;;;;;;6331368;28;20048;-70
2023/01/07 16:23:29;;;;;;;10.68;4.53;;;19.40;56.30;;;;;;6344047;28;20275;-70
2023/01/07 16:26:34;;;;;;;13.55;4.28;;;19.40;56.30;;;;;;6318324;28;20035;-70